Terminal Aerodrome Forecast
Issued by NWS

Home | Current Version | Previous Version | Text Only | Print | Product List | Glossary On
Versions: 1 2 3 4 5 6 7 8 9 10 11 12 13 14 15 16
000
FTUS42 KMLB 241000 AAA
TAFLEE
TAF AMD
KLEE 241001Z 2410/2506 00000KT 3SM BR BKN003
      TEMPO 2410/2412 1SM BR OVC003
     FM241400 15004KT P6SM FEW015
     FM241600 18005KT P6SM FEW035=

USA.gov is the U.S. government's official web portal to all federal, state and local government web resources and services.